sensor_id;sensor_type;location;lat;lon;timestamp;P1;durP1;ratioP1;P2;durP2;ratioP2
62673;SDS011;62269;47.594;17.638;2022-09-09T00:00:34;2.53;;;2.42;;
62673;SDS011;62269;47.594;17.638;2022-09-09T00:02:52;2.58;;;2.37;;
62673;SDS011;62269;47.594;17.638;2022-09-09T00:03:53;2.65;;;2.10;;
62673;SDS011;62269;47.594;17.638;2022-09-09T00:05:05;2.62;;;2.42;;
62673;SDS011;62269;47.594;17.638;2022-09-09T00:06:10;2.15;;;2.05;;
62673;SDS011;62269;47.594;17.638;2022-09-09T00:07:52;2.62;;;2.28;;
62673;SDS011;62269;47.594;17.638;2022-09-09T00:08:44;3.05;;;2.75;;
62673;SDS011;62269;47.594;17.638;2022-09-09T00:09:36;2.50;;;2.30;;
62673;SDS011;62269;47.594;17.638;2022-09-09T00:10:31;2.50;;;2.30;;
62673;SDS011;62269;47.594;17.638;2022-09-09T00:11:24;2.62;;;2.35;;
62673;SDS011;62269;47.594;17.638;2022-09-09T00:12:34;2.15;;;2.05;;
62673;SDS011;62269;47.594;17.638;2022-09-09T00:13:31;5.68;;;3.35;;
62673;SDS011;62269;47.594;17.638;2022-09-09T00:15:38;2.42;;;2.33;;
62673;SDS011;62269;47.594;17.638;2022-09-09T00:16:54;2.70;;;2.50;;
62673;SDS011;62269;47.594;17.638;2022-09-09T00:17:43;2.47;;;2.28;;
62673;SDS011;62269;47.594;17.638;2022-09-09T00:19:33;2.50;;;2.30;;
62673;SDS011;62269;47.594;17.638;2022-09-09T00:23:12;2.55;;;2.45;;
62673;SDS011;62269;47.594;17.638;2022-09-09T00:24:04;2.42;;;2.22;;
62673;SDS011;62269;47.594;17.638;2022-09-09T00:25:11;2.58;;;2.08;;
62673;SDS011;62269;47.594;17.638;2022-09-09T00:27:06;2.60;;;2.12;;
62673;SDS011;62269;47.594;17.638;2022-09-09T00:27:58;2.62;;;2.50;;
62673;SDS011;62269;47.594;17.638;2022-09-09T00:30:28;2.25;;;2.05;;
62673;SDS011;62269;47.594;17.638;2022-09-09T00:31:12;2.80;;;2.60;;
62673;SDS011;62269;47.594;17.638;2022-09-09T00:32:07;2.37;;;2.20;;
62673;SDS011;62269;47.594;17.638;2022-09-09T00:33:00;2.85;;;2.65;;
62673;SDS011;62269;47.594;17.638;2022-09-09T00:34:37;2.47;;;2.37;;
62673;SDS011;62269;47.594;17.638;2022-09-09T00:35:36;2.40;;;2.28;;
62673;SDS011;62269;47.594;17.638;2022-09-09T00:36:24;3.15;;;2.60;;
62673;SDS011;62269;47.594;17.638;2022-09-09T00:37:12;2.72;;;2.53;;
62673;SDS011;62269;47.594;17.638;2022-09-09T00:38:01;3.42;;;2.50;;
62673;SDS011;62269;47.594;17.638;2022-09-09T00:38:56;2.87;;;2.40;;
62673;SDS011;62269;47.594;17.638;2022-09-09T00:39:47;2.90;;;2.60;;
62673;SDS011;62269;47.594;17.638;2022-09-09T00:42:51;3.00;;;2.50;;
62673;SDS011;62269;47.594;17.638;2022-09-09T00:43:46;2.75;;;2.28;;
62673;SDS011;62269;47.594;17.638;2022-09-09T00:44:51;3.05;;;2.60;;
62673;SDS011;62269;47.594;17.638;2022-09-09T00:46:40;3.20;;;2.90;;
62673;SDS011;62269;47.594;17.638;2022-09-09T00:47:40;2.50;;;2.28;;
62673;SDS011;62269;47.594;17.638;2022-09-09T00:48:53;4.57;;;2.80;;
62673;SDS011;62269;47.594;17.638;2022-09-09T00:51:20;3.78;;;2.55;;
62673;SDS011;62269;47.594;17.638;2022-09-09T00:56:42;3.00;;;2.80;;
62673;SDS011;62269;47.594;17.638;2022-09-09T00:57:36;4.75;;;2.62;;
62673;SDS011;62269;47.594;17.638;2022-09-09T00:58:24;2.90;;;2.70;;
62673;SDS011;62269;47.594;17.638;2022-09-09T00:59:18;2.87;;;2.67;;
62673;SDS011;62269;47.594;17.638;2022-09-09T01:00:18;3.00;;;2.80;;
62673;SDS011;62269;47.594;17.638;2022-09-09T01:01:13;3.20;;;2.75;;
62673;SDS011;62269;47.594;17.638;2022-09-09T01:02:00;2.80;;;2.60;;
62673;SDS011;62269;47.594;17.638;2022-09-09T01:04:13;3.92;;;2.95;;
62673;SDS011;62269;47.594;17.638;2022-09-09T01:05:13;2.90;;;2.72;;
62673;SDS011;62269;47.594;17.638;2022-09-09T01:06:19;3.20;;;2.90;;
62673;SDS011;62269;47.594;17.638;2022-09-09T01:07:18;2.75;;;2.55;;
62673;SDS011;62269;47.594;17.638;2022-09-09T01:08:06;2.90;;;2.65;;
62673;SDS011;62269;47.594;17.638;2022-09-09T01:10:21;3.25;;;2.95;;
62673;SDS011;62269;47.594;17.638;2022-09-09T01:11:37;3.40;;;3.10;;
62673;SDS011;62269;47.594;17.638;2022-09-09T01:12:40;3.92;;;3.08;;
62673;SDS011;62269;47.594;17.638;2022-09-09T01:13:29;5.75;;;2.83;;
62673;SDS011;62269;47.594;17.638;2022-09-09T01:15:37;2.75;;;2.62;;
62673;SDS011;62269;47.594;17.638;2022-09-09T01:16:25;3.58;;;3.08;;
62673;SDS011;62269;47.594;17.638;2022-09-09T01:17:23;3.33;;;3.03;;
62673;SDS011;62269;47.594;17.638;2022-09-09T01:18:15;3.20;;;2.90;;
62673;SDS011;62269;47.594;17.638;2022-09-09T01:19:04;3.25;;;3.05;;
62673;SDS011;62269;47.594;17.638;2022-09-09T01:23:04;3.28;;;2.97;;
62673;SDS011;62269;47.594;17.638;2022-09-09T01:27:02;3.30;;;3.05;;
62673;SDS011;62269;47.594;17.638;2022-09-09T01:27:50;4.03;;;3.12;;
62673;SDS011;62269;47.594;17.638;2022-09-09T01:28:38;3.60;;;3.30;;
62673;SDS011;62269;47.594;17.638;2022-09-09T01:29:25;4.85;;;3.20;;
62673;SDS011;62269;47.594;17.638;2022-09-09T01:30:12;3.62;;;3.25;;
62673;SDS011;62269;47.594;17.638;2022-09-09T01:31:01;3.65;;;3.35;;
62673;SDS011;62269;47.594;17.638;2022-09-09T01:32:00;3.20;;;3.00;;
62673;SDS011;62269;47.594;17.638;2022-09-09T01:32:49;3.45;;;3.25;;
62673;SDS011;62269;47.594;17.638;2022-09-09T01:33:37;3.40;;;3.10;;
62673;SDS011;62269;47.594;17.638;2022-09-09T01:34:25;3.50;;;3.20;;
62673;SDS011;62269;47.594;17.638;2022-09-09T01:36:38;4.03;;;3.00;;
62673;SDS011;62269;47.594;17.638;2022-09-09T01:37:27;3.28;;;3.08;;
62673;SDS011;62269;47.594;17.638;2022-09-09T01:38:14;3.55;;;3.25;;
62673;SDS011;62269;47.594;17.638;2022-09-09T01:39:01;3.55;;;3.25;;
62673;SDS011;62269;47.594;17.638;2022-09-09T01:39:48;4.32;;;3.42;;
62673;SDS011;62269;47.594;17.638;2022-09-09T01:40:35;3.60;;;3.30;;
62673;SDS011;62269;47.594;17.638;2022-09-09T01:41:22;3.72;;;3.40;;
62673;SDS011;62269;47.594;17.638;2022-09-09T01:42:09;3.55;;;3.25;;
62673;SDS011;62269;47.594;17.638;2022-09-09T01:42:57;3.87;;;3.47;;
62673;SDS011;62269;47.594;17.638;2022-09-09T01:43:44;4.55;;;3.60;;
62673;SDS011;62269;47.594;17.638;2022-09-09T01:44:31;3.65;;;3.35;;
62673;SDS011;62269;47.594;17.638;2022-09-09T01:45:18;3.72;;;3.30;;
62673;SDS011;62269;47.594;17.638;2022-09-09T01:46:05;3.60;;;3.30;;
62673;SDS011;62269;47.594;17.638;2022-09-09T01:46:52;3.58;;;3.28;;
62673;SDS011;62269;47.594;17.638;2022-09-09T01:47:38;3.80;;;3.40;;
62673;SDS011;62269;47.594;17.638;2022-09-09T01:48:25;3.78;;;3.30;;
62673;SDS011;62269;47.594;17.638;2022-09-09T01:49:13;3.87;;;3.40;;
62673;SDS011;62269;47.594;17.638;2022-09-09T01:50:00;3.35;;;3.10;;
62673;SDS011;62269;47.594;17.638;2022-09-09T01:50:48;3.42;;;3.20;;
62673;SDS011;62269;47.594;17.638;2022-09-09T01:51:36;3.83;;;3.53;;
62673;SDS011;62269;47.594;17.638;2022-09-09T01:52:24;3.30;;;3.08;;
62673;SDS011;62269;47.594;17.638;2022-09-09T01:53:11;3.80;;;3.50;;
62673;SDS011;62269;47.594;17.638;2022-09-09T01:53:59;3.50;;;3.20;;
62673;SDS011;62269;47.594;17.638;2022-09-09T01:54:46;3.58;;;3.28;;
62673;SDS011;62269;47.594;17.638;2022-09-09T01:55:33;3.50;;;3.20;;
62673;SDS011;62269;47.594;17.638;2022-09-09T01:57:23;3.33;;;3.10;;
62673;SDS011;62269;47.594;17.638;2022-09-09T02:00:34;4.82;;;3.30;;
62673;SDS011;62269;47.594;17.638;2022-09-09T02:01:27;5.50;;;3.53;;
62673;SDS011;62269;47.594;17.638;2022-09-09T02:02:30;4.00;;;3.60;;
62673;SDS011;62269;47.594;17.638;2022-09-09T02:03:25;5.03;;;4.03;;
62673;SDS011;62269;47.594;17.638;2022-09-09T02:05:01;4.10;;;3.70;;
62673;SDS011;62269;47.594;17.638;2022-09-09T02:08:15;3.85;;;3.55;;
62673;SDS011;62269;47.594;17.638;2022-09-09T02:09:05;4.20;;;3.72;;
62673;SDS011;62269;47.594;17.638;2022-09-09T02:09:58;4.97;;;3.87;;
62673;SDS011;62269;47.594;17.638;2022-09-09T02:11:43;4.20;;;3.80;;
62673;SDS011;62269;47.594;17.638;2022-09-09T02:12:31;4.10;;;3.60;;
62673;SDS011;62269;47.594;17.638;2022-09-09T02:13:18;4.80;;;4.00;;
62673;SDS011;62269;47.594;17.638;2022-09-09T02:14:10;5.57;;;3.90;;
62673;SDS011;62269;47.594;17.638;2022-09-09T02:15:01;4.30;;;3.90;;
62673;SDS011;62269;47.594;17.638;2022-09-09T02:16:13;4.28;;;3.87;;
62673;SDS011;62269;47.594;17.638;2022-09-09T02:17:17;3.92;;;3.53;;
62673;SDS011;62269;47.594;17.638;2022-09-09T02:18:08;4.22;;;3.83;;
62673;SDS011;62269;47.594;17.638;2022-09-09T02:19:07;4.75;;;3.80;;
62673;SDS011;62269;47.594;17.638;2022-09-09T02:19:57;4.40;;;4.00;;
62673;SDS011;62269;47.594;17.638;2022-09-09T02:20:51;4.20;;;3.80;;
62673;SDS011;62269;47.594;17.638;2022-09-09T02:21:38;5.05;;;3.78;;
62673;SDS011;62269;47.594;17.638;2022-09-09T02:22:26;4.20;;;3.80;;
62673;SDS011;62269;47.594;17.638;2022-09-09T02:23:14;3.97;;;3.67;;
62673;SDS011;62269;47.594;17.638;2022-09-09T02:24:02;4.82;;;4.22;;
62673;SDS011;62269;47.594;17.638;2022-09-09T02:24:51;4.20;;;3.80;;
62673;SDS011;62269;47.594;17.638;2022-09-09T02:25:41;3.97;;;3.60;;
62673;SDS011;62269;47.594;17.638;2022-09-09T02:26:28;4.53;;;3.85;;
62673;SDS011;62269;47.594;17.638;2022-09-09T02:27:15;4.30;;;3.78;;
62673;SDS011;62269;47.594;17.638;2022-09-09T02:28:03;4.10;;;3.70;;
62673;SDS011;62269;47.594;17.638;2022-09-09T02:28:54;3.80;;;3.50;;
62673;SDS011;62269;47.594;17.638;2022-09-09T02:29:42;4.25;;;3.85;;
62673;SDS011;62269;47.594;17.638;2022-09-09T02:30:30;4.65;;;3.92;;
62673;SDS011;62269;47.594;17.638;2022-09-09T02:31:20;7.32;;;4.40;;
62673;SDS011;62269;47.594;17.638;2022-09-09T02:32:09;4.30;;;3.90;;
62673;SDS011;62269;47.594;17.638;2022-09-09T02:33:07;4.57;;;3.95;;
62673;SDS011;62269;47.594;17.638;2022-09-09T02:33:57;4.65;;;4.25;;
62673;SDS011;62269;47.594;17.638;2022-09-09T02:34:50;4.70;;;4.10;;
62673;SDS011;62269;47.594;17.638;2022-09-09T02:35:40;4.90;;;4.10;;
62673;SDS011;62269;47.594;17.638;2022-09-09T02:36:29;4.50;;;4.10;;
62673;SDS011;62269;47.594;17.638;2022-09-09T02:37:20;5.07;;;4.03;;
62673;SDS011;62269;47.594;17.638;2022-09-09T02:38:12;4.80;;;3.90;;
62673;SDS011;62269;47.594;17.638;2022-09-09T02:39:00;4.20;;;3.80;;
62673;SDS011;62269;47.594;17.638;2022-09-09T02:39:48;4.50;;;4.10;;
62673;SDS011;62269;47.594;17.638;2022-09-09T02:40:34;4.45;;;4.05;;
62673;SDS011;62269;47.594;17.638;2022-09-09T02:41:24;4.62;;;4.15;;
62673;SDS011;62269;47.594;17.638;2022-09-09T02:42:14;4.47;;;4.05;;
62673;SDS011;62269;47.594;17.638;2022-09-09T02:43:01;4.50;;;3.90;;
62673;SDS011;62269;47.594;17.638;2022-09-09T02:43:49;4.50;;;4.10;;
62673;SDS011;62269;47.594;17.638;2022-09-09T02:44:36;5.30;;;4.05;;
62673;SDS011;62269;47.594;17.638;2022-09-09T02:45:25;4.57;;;4.10;;
62673;SDS011;62269;47.594;17.638;2022-09-09T02:47:50;4.70;;;4.20;;
62673;SDS011;62269;47.594;17.638;2022-09-09T02:51:53;5.37;;;3.90;;
62673;SDS011;62269;47.594;17.638;2022-09-09T02:54:56;4.90;;;3.90;;
62673;SDS011;62269;47.594;17.638;2022-09-09T02:55:55;5.37;;;3.92;;
62673;SDS011;62269;47.594;17.638;2022-09-09T02:56:49;4.75;;;4.20;;
62673;SDS011;62269;47.594;17.638;2022-09-09T02:57:43;4.78;;;4.18;;
62673;SDS011;62269;47.594;17.638;2022-09-09T02:58:33;4.50;;;4.10;;
62673;SDS011;62269;47.594;17.638;2022-09-09T02:59:20;4.28;;;3.87;;
62673;SDS011;62269;47.594;17.638;2022-09-09T03:00:08;4.10;;;3.80;;
62673;SDS011;62269;47.594;17.638;2022-09-09T03:00:56;4.57;;;4.18;;
62673;SDS011;62269;47.594;17.638;2022-09-09T03:01:44;4.87;;;4.05;;
62673;SDS011;62269;47.594;17.638;2022-09-09T03:02:31;5.22;;;4.72;;
62673;SDS011;62269;47.594;17.638;2022-09-09T03:03:18;5.20;;;4.30;;
62673;SDS011;62269;47.594;17.638;2022-09-09T03:04:06;5.40;;;4.47;;
62673;SDS011;62269;47.594;17.638;2022-09-09T03:04:52;4.43;;;4.00;;
62673;SDS011;62269;47.594;17.638;2022-09-09T03:05:39;5.95;;;4.20;;
62673;SDS011;62269;47.594;17.638;2022-09-09T03:06:29;4.72;;;4.18;;
62673;SDS011;62269;47.594;17.638;2022-09-09T03:07:16;6.12;;;4.65;;
62673;SDS011;62269;47.594;17.638;2022-09-09T03:08:04;4.60;;;4.07;;
62673;SDS011;62269;47.594;17.638;2022-09-09T03:08:51;5.35;;;4.65;;
62673;SDS011;62269;47.594;17.638;2022-09-09T03:09:38;4.75;;;4.28;;
62673;SDS011;62269;47.594;17.638;2022-09-09T03:10:25;5.53;;;4.22;;
62673;SDS011;62269;47.594;17.638;2022-09-09T03:11:12;5.03;;;4.28;;
62673;SDS011;62269;47.594;17.638;2022-09-09T03:12:00;6.20;;;4.32;;
62673;SDS011;62269;47.594;17.638;2022-09-09T03:12:47;5.85;;;4.20;;
62673;SDS011;62269;47.594;17.638;2022-09-09T03:13:33;4.60;;;4.20;;
62673;SDS011;62269;47.594;17.638;2022-09-09T03:14:20;5.32;;;4.60;;
62673;SDS011;62269;47.594;17.638;2022-09-09T03:15:10;4.72;;;4.32;;
62673;SDS011;62269;47.594;17.638;2022-09-09T03:15:57;4.60;;;4.20;;
62673;SDS011;62269;47.594;17.638;2022-09-09T03:16:44;4.50;;;4.10;;
62673;SDS011;62269;47.594;17.638;2022-09-09T03:17:32;4.75;;;4.35;;
62673;SDS011;62269;47.594;17.638;2022-09-09T03:18:20;4.50;;;4.10;;
62673;SDS011;62269;47.594;17.638;2022-09-09T03:19:07;5.25;;;4.40;;
62673;SDS011;62269;47.594;17.638;2022-09-09T03:19:54;5.25;;;4.28;;
62673;SDS011;62269;47.594;17.638;2022-09-09T03:20:41;4.90;;;4.40;;
62673;SDS011;62269;47.594;17.638;2022-09-09T03:21:28;5.32;;;4.50;;
62673;SDS011;62269;47.594;17.638;2022-09-09T03:22:15;4.85;;;4.35;;
62673;SDS011;62269;47.594;17.638;2022-09-09T03:23:02;5.00;;;4.50;;
62673;SDS011;62269;47.594;17.638;2022-09-09T03:23:49;5.03;;;4.28;;
62673;SDS011;62269;47.594;17.638;2022-09-09T03:24:35;4.93;;;4.50;;
62673;SDS011;62269;47.594;17.638;2022-09-09T03:25:22;7.07;;;4.37;;
62673;SDS011;62269;47.594;17.638;2022-09-09T03:26:12;5.60;;;4.40;;
62673;SDS011;62269;47.594;17.638;2022-09-09T03:27:01;4.70;;;4.30;;
62673;SDS011;62269;47.594;17.638;2022-09-09T03:27:48;5.25;;;4.20;;
62673;SDS011;62269;47.594;17.638;2022-09-09T03:28:35;4.47;;;4.07;;
62673;SDS011;62269;47.594;17.638;2022-09-09T03:29:22;6.00;;;4.53;;
62673;SDS011;62269;47.594;17.638;2022-09-09T03:30:09;5.15;;;4.53;;
62673;SDS011;62269;47.594;17.638;2022-09-09T03:31:00;5.22;;;4.10;;
62673;SDS011;62269;47.594;17.638;2022-09-09T03:31:47;4.90;;;4.50;;
62673;SDS011;62269;47.594;17.638;2022-09-09T03:32:34;5.20;;;4.45;;
62673;SDS011;62269;47.594;17.638;2022-09-09T03:33:21;4.78;;;4.28;;
62673;SDS011;62269;47.594;17.638;2022-09-09T03:34:07;4.50;;;4.03;;
62673;SDS011;62269;47.594;17.638;2022-09-09T03:34:54;4.30;;;3.90;;
62673;SDS011;62269;47.594;17.638;2022-09-09T03:35:45;4.40;;;3.90;;
62673;SDS011;62269;47.594;17.638;2022-09-09T03:36:35;4.68;;;4.20;;
62673;SDS011;62269;47.594;17.638;2022-09-09T03:37:22;5.03;;;4.53;;
62673;SDS011;62269;47.594;17.638;2022-09-09T03:38:09;5.12;;;4.50;;
62673;SDS011;62269;47.594;17.638;2022-09-09T03:38:57;4.72;;;4.32;;
62673;SDS011;62269;47.594;17.638;2022-09-09T03:39:44;5.70;;;4.32;;
62673;SDS011;62269;47.594;17.638;2022-09-09T03:40:31;6.03;;;4.87;;
62673;SDS011;62269;47.594;17.638;2022-09-09T03:41:18;4.70;;;4.12;;
62673;SDS011;62269;47.594;17.638;2022-09-09T03:42:04;6.90;;;4.20;;
62673;SDS011;62269;47.594;17.638;2022-09-09T03:42:52;4.80;;;4.30;;
62673;SDS011;62269;47.594;17.638;2022-09-09T03:43:38;4.70;;;4.30;;
62673;SDS011;62269;47.594;17.638;2022-09-09T03:44:25;4.62;;;4.22;;
62673;SDS011;62269;47.594;17.638;2022-09-09T03:45:12;4.40;;;4.00;;
62673;SDS011;62269;47.594;17.638;2022-09-09T03:45:59;4.80;;;4.30;;
62673;SDS011;62269;47.594;17.638;2022-09-09T03:46:46;4.57;;;4.18;;
62673;SDS011;62269;47.594;17.638;2022-09-09T03:47:33;4.62;;;4.20;;
62673;SDS011;62269;47.594;17.638;2022-09-09T03:48:19;4.50;;;4.10;;
62673;SDS011;62269;47.594;17.638;2022-09-09T03:49:06;4.87;;;4.10;;
62673;SDS011;62269;47.594;17.638;2022-09-09T03:49:53;5.65;;;4.37;;
62673;SDS011;62269;47.594;17.638;2022-09-09T03:50:43;7.47;;;4.65;;
62673;SDS011;62269;47.594;17.638;2022-09-09T03:51:31;4.90;;;4.40;;
62673;SDS011;62269;47.594;17.638;2022-09-09T03:52:17;4.80;;;4.28;;
62673;SDS011;62269;47.594;17.638;2022-09-09T03:53:09;6.70;;;4.80;;
62673;SDS011;62269;47.594;17.638;2022-09-09T03:53:55;4.43;;;4.03;;
62673;SDS011;62269;47.594;17.638;2022-09-09T03:54:44;5.03;;;4.53;;
62673;SDS011;62269;47.594;17.638;2022-09-09T03:55:31;4.53;;;4.12;;
62673;SDS011;62269;47.594;17.638;2022-09-09T03:56:18;4.78;;;4.20;;
62673;SDS011;62269;47.594;17.638;2022-09-09T03:57:08;4.50;;;4.10;;
62673;SDS011;62269;47.594;17.638;2022-09-09T03:57:55;5.32;;;4.32;;
62673;SDS011;62269;47.594;17.638;2022-09-09T03:58:42;5.65;;;4.20;;
62673;SDS011;62269;47.594;17.638;2022-09-09T03:59:29;4.65;;;4.25;;
62673;SDS011;62269;47.594;17.638;2022-09-09T04:00:16;4.40;;;3.92;;
62673;SDS011;62269;47.594;17.638;2022-09-09T04:01:08;9.30;;;4.35;;
62673;SDS011;62269;47.594;17.638;2022-09-09T04:01:56;4.55;;;4.15;;
62673;SDS011;62269;47.594;17.638;2022-09-09T04:02:45;4.53;;;4.12;;
62673;SDS011;62269;47.594;17.638;2022-09-09T04:03:32;4.53;;;4.12;;
62673;SDS011;62269;47.594;17.638;2022-09-09T04:04:19;4.55;;;4.15;;
62673;SDS011;62269;47.594;17.638;2022-09-09T04:05:06;4.50;;;4.10;;
62673;SDS011;62269;47.594;17.638;2022-09-09T04:05:53;4.68;;;4.20;;
62673;SDS011;62269;47.594;17.638;2022-09-09T04:06:41;4.28;;;3.80;;
62673;SDS011;62269;47.594;17.638;2022-09-09T04:07:28;4.95;;;3.80;;
62673;SDS011;62269;47.594;17.638;2022-09-09T04:08:15;4.62;;;4.10;;
62673;SDS011;62269;47.594;17.638;2022-09-09T04:09:02;5.57;;;4.18;;
62673;SDS011;62269;47.594;17.638;2022-09-09T04:09:49;4.65;;;4.07;;
62673;SDS011;62269;47.594;17.638;2022-09-09T04:10:36;5.12;;;4.10;;
62673;SDS011;62269;47.594;17.638;2022-09-09T04:11:23;6.25;;;4.28;;
62673;SDS011;62269;47.594;17.638;2022-09-09T04:12:10;5.75;;;4.07;;
62673;SDS011;62269;47.594;17.638;2022-09-09T04:12:59;4.60;;;3.90;;
62673;SDS011;62269;47.594;17.638;2022-09-09T04:13:46;7.05;;;4.00;;
62673;SDS011;62269;47.594;17.638;2022-09-09T04:14:33;6.53;;;4.18;;
62673;SDS011;62269;47.594;17.638;2022-09-09T04:15:19;4.65;;;4.03;;
62673;SDS011;62269;47.594;17.638;2022-09-09T04:16:06;4.50;;;3.97;;
62673;SDS011;62269;47.594;17.638;2022-09-09T04:16:54;4.40;;;3.97;;
62673;SDS011;62269;47.594;17.638;2022-09-09T04:17:43;5.43;;;3.65;;
62673;SDS011;62269;47.594;17.638;2022-09-09T04:18:30;6.47;;;4.20;;
62673;SDS011;62269;47.594;17.638;2022-09-09T04:19:17;6.60;;;4.62;;
62673;SDS011;62269;47.594;17.638;2022-09-09T04:20:04;7.10;;;4.70;;
62673;SDS011;62269;47.594;17.638;2022-09-09T04:20:52;5.65;;;4.60;;
62673;SDS011;62269;47.594;17.638;2022-09-09T04:21:42;6.57;;;4.30;;
62673;SDS011;62269;47.594;17.638;2022-09-09T04:22:29;4.53;;;4.12;;
62673;SDS011;62269;47.594;17.638;2022-09-09T04:23:16;5.25;;;4.07;;
62673;SDS011;62269;47.594;17.638;2022-09-09T04:24:05;4.60;;;4.10;;
62673;SDS011;62269;47.594;17.638;2022-09-09T04:24:53;4.70;;;4.18;;
62673;SDS011;62269;47.594;17.638;2022-09-09T04:25:49;4.32;;;3.92;;
62673;SDS011;62269;47.594;17.638;2022-09-09T04:26:37;4.97;;;3.80;;
62673;SDS011;62269;47.594;17.638;2022-09-09T04:27:24;5.85;;;4.12;;
62673;SDS011;62269;47.594;17.638;2022-09-09T04:28:11;5.28;;;4.07;;
62673;SDS011;62269;47.594;17.638;2022-09-09T04:28:57;4.97;;;4.00;;
62673;SDS011;62269;47.594;17.638;2022-09-09T04:29:44;4.40;;;4.00;;
62673;SDS011;62269;47.594;17.638;2022-09-09T04:30:31;4.20;;;3.80;;
62673;SDS011;62269;47.594;17.638;2022-09-09T04:31:21;4.18;;;3.78;;
62673;SDS011;62269;47.594;17.638;2022-09-09T04:32:10;4.40;;;3.97;;
62673;SDS011;62269;47.594;17.638;2022-09-09T04:32:57;4.10;;;3.70;;
62673;SDS011;62269;47.594;17.638;2022-09-09T04:33:44;4.18;;;3.78;;
62673;SDS011;62269;47.594;17.638;2022-09-09T04:34:31;4.47;;;3.37;;
62673;SDS011;62269;47.594;17.638;2022-09-09T04:35:19;4.75;;;3.85;;
62673;SDS011;62269;47.594;17.638;2022-09-09T04:36:06;4.72;;;3.62;;
62673;SDS011;62269;47.594;17.638;2022-09-09T04:36:54;3.90;;;3.60;;
62673;SDS011;62269;47.594;17.638;2022-09-09T04:37:41;4.40;;;3.90;;
62673;SDS011;62269;47.594;17.638;2022-09-09T04:38:27;4.18;;;3.78;;
62673;SDS011;62269;47.594;17.638;2022-09-09T04:39:14;5.22;;;4.68;;
62673;SDS011;62269;47.594;17.638;2022-09-09T04:40:01;4.20;;;3.80;;
62673;SDS011;62269;47.594;17.638;2022-09-09T04:40:49;4.75;;;4.10;;
62673;SDS011;62269;47.594;17.638;2022-09-09T04:41:37;3.62;;;3.35;;
62673;SDS011;62269;47.594;17.638;2022-09-09T04:42:24;5.43;;;3.70;;
62673;SDS011;62269;47.594;17.638;2022-09-09T04:43:11;5.50;;;3.80;;
62673;SDS011;62269;47.594;17.638;2022-09-09T04:43:59;4.65;;;3.80;;
62673;SDS011;62269;47.594;17.638;2022-09-09T04:44:47;4.53;;;3.70;;
62673;SDS011;62269;47.594;17.638;2022-09-09T04:45:33;4.95;;;3.62;;
62673;SDS011;62269;47.594;17.638;2022-09-09T04:46:20;4.57;;;3.67;;
62673;SDS011;62269;47.594;17.638;2022-09-09T04:47:09;4.95;;;3.65;;
62673;SDS011;62269;47.594;17.638;2022-09-09T04:47:56;5.25;;;3.65;;
62673;SDS011;62269;47.594;17.638;2022-09-09T04:48:43;4.87;;;3.72;;
62673;SDS011;62269;47.594;17.638;2022-09-09T04:49:30;4.00;;;3.60;;
62673;SDS011;62269;47.594;17.638;2022-09-09T04:50:18;3.97;;;3.62;;
62673;SDS011;62269;47.594;17.638;2022-09-09T04:51:08;4.10;;;3.70;;
62673;SDS011;62269;47.594;17.638;2022-09-09T04:51:58;5.95;;;4.00;;
62673;SDS011;62269;47.594;17.638;2022-09-09T04:52:45;3.87;;;3.45;;
62673;SDS011;62269;47.594;17.638;2022-09-09T04:53:32;4.18;;;3.70;;
62673;SDS011;62269;47.594;17.638;2022-09-09T04:54:20;8.32;;;3.92;;
62673;SDS011;62269;47.594;17.638;2022-09-09T04:55:07;5.62;;;3.85;;
62673;SDS011;62269;47.594;17.638;2022-09-09T04:56:05;4.30;;;3.90;;
62673;SDS011;62269;47.594;17.638;2022-09-09T04:56:53;4.30;;;3.90;;
62673;SDS011;62269;47.594;17.638;2022-09-09T04:57:41;4.28;;;3.42;;
62673;SDS011;62269;47.594;17.638;2022-09-09T04:58:27;4.53;;;3.65;;
62673;SDS011;62269;47.594;17.638;2022-09-09T04:59:14;4.93;;;4.43;;
62673;SDS011;62269;47.594;17.638;2022-09-09T05:00:02;6.72;;;3.70;;
62673;SDS011;62269;47.594;17.638;2022-09-09T05:00:49;8.45;;;3.67;;
62673;SDS011;62269;47.594;17.638;2022-09-09T05:01:38;6.32;;;3.70;;
62673;SDS011;62269;47.594;17.638;2022-09-09T05:02:25;4.20;;;3.80;;
62673;SDS011;62269;47.594;17.638;2022-09-09T05:03:16;4.47;;;3.90;;
62673;SDS011;62269;47.594;17.638;2022-09-09T05:04:03;6.00;;;3.80;;
62673;SDS011;62269;47.594;17.638;2022-09-09T05:04:50;4.10;;;3.70;;
62673;SDS011;62269;47.594;17.638;2022-09-09T05:05:36;5.12;;;3.67;;
62673;SDS011;62269;47.594;17.638;2022-09-09T05:06:23;5.25;;;3.70;;
62673;SDS011;62269;47.594;17.638;2022-09-09T05:07:10;3.95;;;3.55;;
62673;SDS011;62269;47.594;17.638;2022-09-09T05:08:01;4.15;;;3.75;;
62673;SDS011;62269;47.594;17.638;2022-09-09T05:08:49;4.22;;;3.53;;
62673;SDS011;62269;47.594;17.638;2022-09-09T05:09:36;3.97;;;3.53;;
62673;SDS011;62269;47.594;17.638;2022-09-09T05:10:22;7.55;;;3.70;;
62673;SDS011;62269;47.594;17.638;2022-09-09T05:11:28;4.37;;;3.50;;
62673;SDS011;62269;47.594;17.638;2022-09-09T05:12:16;4.80;;;3.55;;
62673;SDS011;62269;47.594;17.638;2022-09-09T05:13:03;4.12;;;3.60;;
62673;SDS011;62269;47.594;17.638;2022-09-09T05:13:51;5.40;;;3.70;;
62673;SDS011;62269;47.594;17.638;2022-09-09T05:14:38;5.90;;;3.80;;
62673;SDS011;62269;47.594;17.638;2022-09-09T05:15:25;4.70;;;3.55;;
62673;SDS011;62269;47.594;17.638;2022-09-09T05:16:12;3.78;;;3.47;;
62673;SDS011;62269;47.594;17.638;2022-09-09T05:17:00;4.00;;;3.60;;
62673;SDS011;62269;47.594;17.638;2022-09-09T05:17:46;3.90;;;3.28;;
62673;SDS011;62269;47.594;17.638;2022-09-09T05:18:33;3.87;;;3.47;;
62673;SDS011;62269;47.594;17.638;2022-09-09T05:19:20;5.00;;;3.80;;
62673;SDS011;62269;47.594;17.638;2022-09-09T05:20:07;6.78;;;4.12;;
62673;SDS011;62269;47.594;17.638;2022-09-09T05:20:59;6.10;;;3.95;;
62673;SDS011;62269;47.594;17.638;2022-09-09T05:21:46;4.50;;;3.85;;
62673;SDS011;62269;47.594;17.638;2022-09-09T05:22:33;9.70;;;4.37;;
62673;SDS011;62269;47.594;17.638;2022-09-09T05:23:20;4.25;;;3.85;;
62673;SDS011;62269;47.594;17.638;2022-09-09T05:24:07;4.00;;;3.22;;
62673;SDS011;62269;47.594;17.638;2022-09-09T05:24:53;4.55;;;3.85;;
62673;SDS011;62269;47.594;17.638;2022-09-09T05:25:40;3.83;;;3.50;;
62673;SDS011;62269;47.594;17.638;2022-09-09T05:26:28;3.80;;;3.45;;
62673;SDS011;62269;47.594;17.638;2022-09-09T05:27:16;4.18;;;3.40;;
62673;SDS011;62269;47.594;17.638;2022-09-09T05:28:06;4.03;;;3.62;;
62673;SDS011;62269;47.594;17.638;2022-09-09T05:28:54;3.65;;;3.35;;
62673;SDS011;62269;47.594;17.638;2022-09-09T05:29:41;4.78;;;3.50;;
62673;SDS011;62269;47.594;17.638;2022-09-09T05:30:30;5.15;;;4.00;;
62673;SDS011;62269;47.594;17.638;2022-09-09T05:31:17;5.00;;;3.50;;
62673;SDS011;62269;47.594;17.638;2022-09-09T05:32:05;4.93;;;3.22;;
62673;SDS011;62269;47.594;17.638;2022-09-09T05:32:52;6.43;;;3.37;;
62673;SDS011;62269;47.594;17.638;2022-09-09T05:33:39;3.58;;;3.20;;
62673;SDS011;62269;47.594;17.638;2022-09-09T05:34:26;3.50;;;3.20;;
62673;SDS011;62269;47.594;17.638;2022-09-09T05:35:13;3.87;;;3.45;;
62673;SDS011;62269;47.594;17.638;2022-09-09T05:36:51;3.47;;;3.17;;
62673;SDS011;62269;47.594;17.638;2022-09-09T05:37:38;5.18;;;3.50;;
62673;SDS011;62269;47.594;17.638;2022-09-09T05:38:26;3.75;;;3.30;;
62673;SDS011;62269;47.594;17.638;2022-09-09T05:39:14;3.35;;;3.10;;
62673;SDS011;62269;47.594;17.638;2022-09-09T05:40:00;3.28;;;3.00;;
62673;SDS011;62269;47.594;17.638;2022-09-09T05:40:48;3.90;;;3.37;;